sensor_id;sensor_type;location;lat;lon;timestamp;temperature;humidity
21481;DHT22;10902;48.158;8.634;2023-08-20T00:02:18;18.40;99.90
21481;DHT22;10902;48.158;8.634;2023-08-20T00:05:05;18.40;99.90
21481;DHT22;10902;48.158;8.634;2023-08-20T00:07:51;18.30;99.90
21481;DHT22;10902;48.158;8.634;2023-08-20T00:10:37;18.20;99.90
21481;DHT22;10902;48.158;8.634;2023-08-20T00:13:22;18.20;99.90
21481;DHT22;10902;48.158;8.634;2023-08-20T00:16:09;18.00;99.90
21481;DHT22;10902;48.158;8.634;2023-08-20T00:18:54;17.90;99.90
21481;DHT22;10902;48.158;8.634;2023-08-20T00:21:43;17.80;99.90
21481;DHT22;10902;48.158;8.634;2023-08-20T00:24:30;17.80;99.90
21481;DHT22;10902;48.158;8.634;2023-08-20T00:27:15;18.00;99.90
21481;DHT22;10902;48.158;8.634;2023-08-20T00:30:01;18.10;99.90
21481;DHT22;10902;48.158;8.634;2023-08-20T00:32:47;18.00;99.90
21481;DHT22;10902;48.158;8.634;2023-08-20T00:35:32;17.90;99.90
21481;DHT22;10902;48.158;8.634;2023-08-20T00:38:18;17.90;99.90
21481;DHT22;10902;48.158;8.634;2023-08-20T00:41:03;18.00;99.90
21481;DHT22;10902;48.158;8.634;2023-08-20T00:43:49;17.90;99.90
21481;DHT22;10902;48.158;8.634;2023-08-20T00:46:35;17.90;99.90
21481;DHT22;10902;48.158;8.634;2023-08-20T00:49:21;17.90;99.90
21481;DHT22;10902;48.158;8.634;2023-08-20T00:52:11;17.80;99.90
21481;DHT22;10902;48.158;8.634;2023-08-20T00:54:58;17.80;99.90
21481;DHT22;10902;48.158;8.634;2023-08-20T00:57:43;17.80;99.90
21481;DHT22;10902;48.158;8.634;2023-08-20T01:00:29;17.80;99.90
21481;DHT22;10902;48.158;8.634;2023-08-20T01:03:15;17.80;99.90
21481;DHT22;10902;48.158;8.634;2023-08-20T01:12:22;17.60;99.90
21481;DHT22;10902;48.158;8.634;2023-08-20T01:15:08;17.40;99.90
21481;DHT22;10902;48.158;8.634;2023-08-20T01:17:59;17.40;99.90
21481;DHT22;10902;48.158;8.634;2023-08-20T01:21:01;17.30;99.90
21481;DHT22;10902;48.158;8.634;2023-08-20T01:24:05;17.30;99.90
21481;DHT22;10902;48.158;8.634;2023-08-20T01:27:10;17.20;99.90
21481;DHT22;10902;48.158;8.634;2023-08-20T01:30:05;17.20;99.90
21481;DHT22;10902;48.158;8.634;2023-08-20T01:32:52;17.20;99.90
21481;DHT22;10902;48.158;8.634;2023-08-20T01:35:38;17.30;99.90
21481;DHT22;10902;48.158;8.634;2023-08-20T01:38:24;17.30;99.90
21481;DHT22;10902;48.158;8.634;2023-08-20T01:41:10;17.20;99.90
21481;DHT22;10902;48.158;8.634;2023-08-20T01:43:55;17.00;99.90
21481;DHT22;10902;48.158;8.634;2023-08-20T01:46:41;17.00;99.90
21481;DHT22;10902;48.158;8.634;2023-08-20T01:49:27;16.90;99.90
21481;DHT22;10902;48.158;8.634;2023-08-20T01:52:12;16.80;99.90
21481;DHT22;10902;48.158;8.634;2023-08-20T01:54:58;16.80;99.90
21481;DHT22;10902;48.158;8.634;2023-08-20T01:57:44;16.70;99.90
21481;DHT22;10902;48.158;8.634;2023-08-20T02:00:29;16.70;99.90
21481;DHT22;10902;48.158;8.634;2023-08-20T02:03:16;16.60;99.90
21481;DHT22;10902;48.158;8.634;2023-08-20T02:06:01;16.70;99.90
21481;DHT22;10902;48.158;8.634;2023-08-20T02:08:47;16.80;99.90
21481;DHT22;10902;48.158;8.634;2023-08-20T02:11:32;16.80;99.90
21481;DHT22;10902;48.158;8.634;2023-08-20T02:14:21;16.70;99.90
21481;DHT22;10902;48.158;8.634;2023-08-20T02:17:07;16.70;99.90
21481;DHT22;10902;48.158;8.634;2023-08-20T02:19:52;16.70;99.90
21481;DHT22;10902;48.158;8.634;2023-08-20T02:22:38;16.70;99.90
21481;DHT22;10902;48.158;8.634;2023-08-20T02:25:24;16.60;99.90
21481;DHT22;10902;48.158;8.634;2023-08-20T02:28:10;16.60;99.90
21481;DHT22;10902;48.158;8.634;2023-08-20T02:30:55;16.70;99.90
21481;DHT22;10902;48.158;8.634;2023-08-20T02:33:42;16.60;99.90
21481;DHT22;10902;48.158;8.634;2023-08-20T02:36:28;16.70;99.90
21481;DHT22;10902;48.158;8.634;2023-08-20T02:39:14;16.70;99.90
21481;DHT22;10902;48.158;8.634;2023-08-20T02:41:59;16.50;99.90
21481;DHT22;10902;48.158;8.634;2023-08-20T02:44:45;16.50;99.90
21481;DHT22;10902;48.158;8.634;2023-08-20T02:47:30;16.40;99.90
21481;DHT22;10902;48.158;8.634;2023-08-20T02:50:16;16.30;99.90
21481;DHT22;10902;48.158;8.634;2023-08-20T02:53:02;16.20;99.90
21481;DHT22;10902;48.158;8.634;2023-08-20T02:55:49;16.10;99.90
21481;DHT22;10902;48.158;8.634;2023-08-20T02:58:34;16.10;99.90
21481;DHT22;10902;48.158;8.634;2023-08-20T03:01:21;16.10;99.90
21481;DHT22;10902;48.158;8.634;2023-08-20T03:04:07;16.10;99.90
21481;DHT22;10902;48.158;8.634;2023-08-20T03:06:53;16.10;99.90
21481;DHT22;10902;48.158;8.634;2023-08-20T03:09:38;16.10;99.90
21481;DHT22;10902;48.158;8.634;2023-08-20T03:12:24;16.10;99.90
21481;DHT22;10902;48.158;8.634;2023-08-20T03:15:09;16.10;99.90
21481;DHT22;10902;48.158;8.634;2023-08-20T03:17:55;16.00;99.90
21481;DHT22;10902;48.158;8.634;2023-08-20T03:20:41;16.00;99.90
21481;DHT22;10902;48.158;8.634;2023-08-20T03:23:27;16.00;99.90
21481;DHT22;10902;48.158;8.634;2023-08-20T03:26:12;16.10;99.90
21481;DHT22;10902;48.158;8.634;2023-08-20T03:28:58;16.00;99.90
21481;DHT22;10902;48.158;8.634;2023-08-20T03:31:44;16.00;99.90
21481;DHT22;10902;48.158;8.634;2023-08-20T03:34:30;16.00;99.90
21481;DHT22;10902;48.158;8.634;2023-08-20T03:37:16;16.00;99.90
21481;DHT22;10902;48.158;8.634;2023-08-20T03:40:01;16.00;99.90
21481;DHT22;10902;48.158;8.634;2023-08-20T03:42:50;16.00;99.90
21481;DHT22;10902;48.158;8.634;2023-08-20T03:45:35;15.90;99.90
21481;DHT22;10902;48.158;8.634;2023-08-20T03:48:21;15.80;99.90
21481;DHT22;10902;48.158;8.634;2023-08-20T03:51:07;15.80;99.90
21481;DHT22;10902;48.158;8.634;2023-08-20T03:53:52;15.80;99.90
21481;DHT22;10902;48.158;8.634;2023-08-20T03:56:38;15.70;99.90
21481;DHT22;10902;48.158;8.634;2023-08-20T03:59:24;15.70;99.90
21481;DHT22;10902;48.158;8.634;2023-08-20T04:02:09;15.70;99.90
21481;DHT22;10902;48.158;8.634;2023-08-20T04:04:57;15.70;99.90
21481;DHT22;10902;48.158;8.634;2023-08-20T04:07:43;15.70;99.90
21481;DHT22;10902;48.158;8.634;2023-08-20T04:10:28;15.80;99.90
21481;DHT22;10902;48.158;8.634;2023-08-20T04:13:14;15.80;99.90
21481;DHT22;10902;48.158;8.634;2023-08-20T04:16:01;15.80;99.90
21481;DHT22;10902;48.158;8.634;2023-08-20T04:18:47;15.80;99.90
21481;DHT22;10902;48.158;8.634;2023-08-20T04:21:33;15.70;99.90
21481;DHT22;10902;48.158;8.634;2023-08-20T04:24:18;15.70;99.90
21481;DHT22;10902;48.158;8.634;2023-08-20T04:27:04;15.70;99.90
21481;DHT22;10902;48.158;8.634;2023-08-20T04:29:51;15.80;99.90
21481;DHT22;10902;48.158;8.634;2023-08-20T04:32:36;15.80;99.90
21481;DHT22;10902;48.158;8.634;2023-08-20T04:35:22;15.80;99.90
21481;DHT22;10902;48.158;8.634;2023-08-20T04:38:07;15.80;99.90
21481;DHT22;10902;48.158;8.634;2023-08-20T04:40:53;16.00;99.90
21481;DHT22;10902;48.158;8.634;2023-08-20T04:43:39;16.00;99.90
21481;DHT22;10902;48.158;8.634;2023-08-20T04:46:24;16.00;99.90
21481;DHT22;10902;48.158;8.634;2023-08-20T04:49:10;16.00;99.90
21481;DHT22;10902;48.158;8.634;2023-08-20T04:51:56;16.10;99.90
21481;DHT22;10902;48.158;8.634;2023-08-20T04:54:41;16.10;99.90
21481;DHT22;10902;48.158;8.634;2023-08-20T04:57:27;16.10;99.90
21481;DHT22;10902;48.158;8.634;2023-08-20T05:00:13;16.10;99.90
21481;DHT22;10902;48.158;8.634;2023-08-20T05:03:02;16.20;99.90
21481;DHT22;10902;48.158;8.634;2023-08-20T05:05:50;16.20;99.90
21481;DHT22;10902;48.158;8.634;2023-08-20T05:08:36;16.20;99.90
21481;DHT22;10902;48.158;8.634;2023-08-20T05:11:22;16.30;99.90
21481;DHT22;10902;48.158;8.634;2023-08-20T05:14:07;16.40;99.90
21481;DHT22;10902;48.158;8.634;2023-08-20T05:16:53;16.40;99.90
21481;DHT22;10902;48.158;8.634;2023-08-20T05:19:38;16.50;99.90
21481;DHT22;10902;48.158;8.634;2023-08-20T05:22:24;16.70;99.90
21481;DHT22;10902;48.158;8.634;2023-08-20T05:25:10;16.80;99.90
21481;DHT22;10902;48.158;8.634;2023-08-20T05:27:55;16.70;99.90
21481;DHT22;10902;48.158;8.634;2023-08-20T05:30:41;16.70;99.90
21481;DHT22;10902;48.158;8.634;2023-08-20T05:33:26;16.90;99.90
21481;DHT22;10902;48.158;8.634;2023-08-20T05:36:13;17.10;99.90
21481;DHT22;10902;48.158;8.634;2023-08-20T05:38:58;17.10;99.90
21481;DHT22;10902;48.158;8.634;2023-08-20T05:41:44;17.30;99.90
21481;DHT22;10902;48.158;8.634;2023-08-20T05:44:29;17.40;99.90
21481;DHT22;10902;48.158;8.634;2023-08-20T05:47:15;17.40;99.90
21481;DHT22;10902;48.158;8.634;2023-08-20T05:50:01;17.60;99.90
21481;DHT22;10902;48.158;8.634;2023-08-20T05:52:46;17.90;99.90
21481;DHT22;10902;48.158;8.634;2023-08-20T05:55:32;18.30;99.90
21481;DHT22;10902;48.158;8.634;2023-08-20T05:58:17;18.20;99.90
21481;DHT22;10902;48.158;8.634;2023-08-20T06:01:03;18.40;99.90
21481;DHT22;10902;48.158;8.634;2023-08-20T06:03:49;18.70;99.90
21481;DHT22;10902;48.158;8.634;2023-08-20T06:06:34;18.70;99.90
21481;DHT22;10902;48.158;8.634;2023-08-20T06:09:20;18.70;99.90
21481;DHT22;10902;48.158;8.634;2023-08-20T06:12:06;18.80;99.90
21481;DHT22;10902;48.158;8.634;2023-08-20T06:14:51;18.90;99.90
21481;DHT22;10902;48.158;8.634;2023-08-20T06:17:37;19.10;99.90
21481;DHT22;10902;48.158;8.634;2023-08-20T06:20:23;19.30;99.90
21481;DHT22;10902;48.158;8.634;2023-08-20T06:23:08;19.40;99.90
21481;DHT22;10902;48.158;8.634;2023-08-20T06:25:54;19.40;99.90
21481;DHT22;10902;48.158;8.634;2023-08-20T06:28:39;19.50;99.90
21481;DHT22;10902;48.158;8.634;2023-08-20T06:31:25;19.70;99.90
21481;DHT22;10902;48.158;8.634;2023-08-20T06:34:10;19.90;99.90
21481;DHT22;10902;48.158;8.634;2023-08-20T06:36:56;20.00;99.90
21481;DHT22;10902;48.158;8.634;2023-08-20T06:39:42;19.80;99.90
21481;DHT22;10902;48.158;8.634;2023-08-20T06:42:27;19.80;99.90
21481;DHT22;10902;48.158;8.634;2023-08-20T06:45:13;19.60;99.90
21481;DHT22;10902;48.158;8.634;2023-08-20T06:47:59;19.70;99.90
21481;DHT22;10902;48.158;8.634;2023-08-20T06:50:44;19.70;99.90
21481;DHT22;10902;48.158;8.634;2023-08-20T06:53:30;19.90;99.90
21481;DHT22;10902;48.158;8.634;2023-08-20T06:56:15;20.00;99.90
21481;DHT22;10902;48.158;8.634;2023-08-20T06:59:01;20.20;99.90
21481;DHT22;10902;48.158;8.634;2023-08-20T07:01:48;20.30;99.90
21481;DHT22;10902;48.158;8.634;2023-08-20T07:04:34;20.40;99.90
21481;DHT22;10902;48.158;8.634;2023-08-20T07:07:19;20.60;99.90
21481;DHT22;10902;48.158;8.634;2023-08-20T07:10:05;20.60;99.90
21481;DHT22;10902;48.158;8.634;2023-08-20T07:12:51;20.40;99.90
21481;DHT22;10902;48.158;8.634;2023-08-20T07:15:37;20.50;99.90
21481;DHT22;10902;48.158;8.634;2023-08-20T07:18:22;20.80;99.90
21481;DHT22;10902;48.158;8.634;2023-08-20T07:21:08;21.20;99.90
21481;DHT22;10902;48.158;8.634;2023-08-20T07:23:53;21.40;99.90
21481;DHT22;10902;48.158;8.634;2023-08-20T07:26:39;21.60;99.90
21481;DHT22;10902;48.158;8.634;2023-08-20T07:29:26;21.90;99.90
21481;DHT22;10902;48.158;8.634;2023-08-20T07:32:11;21.90;99.90
21481;DHT22;10902;48.158;8.634;2023-08-20T07:34:57;22.00;99.90
21481;DHT22;10902;48.158;8.634;2023-08-20T07:37:43;22.50;99.90
21481;DHT22;10902;48.158;8.634;2023-08-20T07:40:28;23.00;99.90
21481;DHT22;10902;48.158;8.634;2023-08-20T07:43:14;23.10;99.90
21481;DHT22;10902;48.158;8.634;2023-08-20T07:45:59;23.40;99.90
21481;DHT22;10902;48.158;8.634;2023-08-20T07:48:45;23.70;99.90
21481;DHT22;10902;48.158;8.634;2023-08-20T07:51:31;24.00;99.90
21481;DHT22;10902;48.158;8.634;2023-08-20T07:54:16;24.30;99.90
21481;DHT22;10902;48.158;8.634;2023-08-20T07:57:02;24.60;99.90
21481;DHT22;10902;48.158;8.634;2023-08-20T07:59:48;24.80;99.90
21481;DHT22;10902;48.158;8.634;2023-08-20T08:02:33;25.30;99.90
21481;DHT22;10902;48.158;8.634;2023-08-20T08:05:19;25.10;99.90
21481;DHT22;10902;48.158;8.634;2023-08-20T08:08:04;25.30;99.90
21481;DHT22;10902;48.158;8.634;2023-08-20T08:10:50;25.80;99.90
21481;DHT22;10902;48.158;8.634;2023-08-20T08:13:36;25.90;99.90
21481;DHT22;10902;48.158;8.634;2023-08-20T08:16:22;26.00;99.90
21481;DHT22;10902;48.158;8.634;2023-08-20T08:19:07;26.30;99.90
21481;DHT22;10902;48.158;8.634;2023-08-20T08:21:53;26.10;99.90
21481;DHT22;10902;48.158;8.634;2023-08-20T08:24:38;25.90;99.90
21481;DHT22;10902;48.158;8.634;2023-08-20T08:27:27;25.60;99.90
21481;DHT22;10902;48.158;8.634;2023-08-20T08:30:12;25.60;99.90
21481;DHT22;10902;48.158;8.634;2023-08-20T08:32:59;25.70;99.90
21481;DHT22;10902;48.158;8.634;2023-08-20T08:35:45;25.90;99.90
21481;DHT22;10902;48.158;8.634;2023-08-20T08:38:30;25.80;99.90
21481;DHT22;10902;48.158;8.634;2023-08-20T08:41:16;25.80;99.90
21481;DHT22;10902;48.158;8.634;2023-08-20T08:44:02;26.10;99.90
21481;DHT22;10902;48.158;8.634;2023-08-20T08:46:49;26.40;99.90
21481;DHT22;10902;48.158;8.634;2023-08-20T08:49:35;26.70;99.90
21481;DHT22;10902;48.158;8.634;2023-08-20T08:52:22;27.10;99.90
21481;DHT22;10902;48.158;8.634;2023-08-20T08:55:08;27.40;99.90
21481;DHT22;10902;48.158;8.634;2023-08-20T08:57:54;27.90;99.90
21481;DHT22;10902;48.158;8.634;2023-08-20T09:00:39;28.50;99.90
21481;DHT22;10902;48.158;8.634;2023-08-20T09:03:25;28.50;99.90
21481;DHT22;10902;48.158;8.634;2023-08-20T09:06:11;29.30;99.90
21481;DHT22;10902;48.158;8.634;2023-08-20T09:09:04;29.90;99.90
21481;DHT22;10902;48.158;8.634;2023-08-20T09:11:50;30.00;99.90
21481;DHT22;10902;48.158;8.634;2023-08-20T09:14:36;30.20;99.90
21481;DHT22;10902;48.158;8.634;2023-08-20T09:17:25;30.20;99.90
21481;DHT22;10902;48.158;8.634;2023-08-20T09:20:11;29.90;99.90
21481;DHT22;10902;48.158;8.634;2023-08-20T09:22:56;31.00;99.90
21481;DHT22;10902;48.158;8.634;2023-08-20T09:25:43;31.70;99.90
21481;DHT22;10902;48.158;8.634;2023-08-20T09:28:53;32.00;99.90
21481;DHT22;10902;48.158;8.634;2023-08-20T09:31:40;32.10;99.90
21481;DHT22;10902;48.158;8.634;2023-08-20T09:34:25;31.50;99.90
21481;DHT22;10902;48.158;8.634;2023-08-20T09:37:17;31.90;99.90
21481;DHT22;10902;48.158;8.634;2023-08-20T09:40:02;31.90;99.90
21481;DHT22;10902;48.158;8.634;2023-08-20T09:42:48;31.90;99.90
21481;DHT22;10902;48.158;8.634;2023-08-20T09:45:34;31.80;99.90
21481;DHT22;10902;48.158;8.634;2023-08-20T09:48:24;32.30;99.90
21481;DHT22;10902;48.158;8.634;2023-08-20T09:51:19;32.80;99.90
21481;DHT22;10902;48.158;8.634;2023-08-20T09:54:17;33.00;99.90
21481;DHT22;10902;48.158;8.634;2023-08-20T09:57:07;33.20;99.90
21481;DHT22;10902;48.158;8.634;2023-08-20T09:59:57;33.60;99.90
21481;DHT22;10902;48.158;8.634;2023-08-20T10:02:44;33.50;99.90
21481;DHT22;10902;48.158;8.634;2023-08-20T10:05:29;33.70;99.90
21481;DHT22;10902;48.158;8.634;2023-08-20T10:08:17;34.00;99.90
21481;DHT22;10902;48.158;8.634;2023-08-20T10:11:02;34.40;99.90
21481;DHT22;10902;48.158;8.634;2023-08-20T10:13:48;34.30;99.90
21481;DHT22;10902;48.158;8.634;2023-08-20T10:16:34;34.80;99.90
21481;DHT22;10902;48.158;8.634;2023-08-20T10:19:20;34.80;99.90
21481;DHT22;10902;48.158;8.634;2023-08-20T10:22:07;34.60;99.90
21481;DHT22;10902;48.158;8.634;2023-08-20T10:24:53;35.10;99.90
21481;DHT22;10902;48.158;8.634;2023-08-20T10:27:41;35.00;99.90
21481;DHT22;10902;48.158;8.634;2023-08-20T10:30:28;35.00;99.90
21481;DHT22;10902;48.158;8.634;2023-08-20T10:33:13;35.00;99.90
21481;DHT22;10902;48.158;8.634;2023-08-20T10:36:15;35.40;99.90
21481;DHT22;10902;48.158;8.634;2023-08-20T10:39:05;35.20;99.90
21481;DHT22;10902;48.158;8.634;2023-08-20T10:42:11;35.90;99.90
21481;DHT22;10902;48.158;8.634;2023-08-20T10:45:09;36.00;99.90
21481;DHT22;10902;48.158;8.634;2023-08-20T10:47:55;36.20;99.90
21481;DHT22;10902;48.158;8.634;2023-08-20T10:50:42;36.20;99.90
21481;DHT22;10902;48.158;8.634;2023-08-20T10:53:29;36.90;99.90
21481;DHT22;10902;48.158;8.634;2023-08-20T10:56:16;36.90;99.90
21481;DHT22;10902;48.158;8.634;2023-08-20T10:59:14;36.90;99.90
21481;DHT22;10902;48.158;8.634;2023-08-20T11:02:00;37.40;99.90
21481;DHT22;10902;48.158;8.634;2023-08-20T11:04:46;37.40;99.90
21481;DHT22;10902;48.158;8.634;2023-08-20T11:07:32;37.30;99.90
21481;DHT22;10902;48.158;8.634;2023-08-20T11:10:20;37.30;99.90
21481;DHT22;10902;48.158;8.634;2023-08-20T11:13:07;36.60;99.90
21481;DHT22;10902;48.158;8.634;2023-08-20T11:15:53;36.50;99.90
21481;DHT22;10902;48.158;8.634;2023-08-20T11:18:39;36.80;99.90
21481;DHT22;10902;48.158;8.634;2023-08-20T11:21:24;36.90;99.90
21481;DHT22;10902;48.158;8.634;2023-08-20T11:24:11;38.00;99.90
21481;DHT22;10902;48.158;8.634;2023-08-20T11:26:57;38.20;99.90
21481;DHT22;10902;48.158;8.634;2023-08-20T11:29:42;38.80;99.90
21481;DHT22;10902;48.158;8.634;2023-08-20T11:32:30;39.40;99.90
21481;DHT22;10902;48.158;8.634;2023-08-20T11:35:16;39.10;99.90
21481;DHT22;10902;48.158;8.634;2023-08-20T11:38:05;38.80;99.90
21481;DHT22;10902;48.158;8.634;2023-08-20T11:40:51;39.30;99.90
21481;DHT22;10902;48.158;8.634;2023-08-20T11:43:37;39.40;99.90
21481;DHT22;10902;48.158;8.634;2023-08-20T11:46:23;38.90;99.90
21481;DHT22;10902;48.158;8.634;2023-08-20T11:49:10;38.40;99.90
21481;DHT22;10902;48.158;8.634;2023-08-20T11:51:56;38.80;99.90
21481;DHT22;10902;48.158;8.634;2023-08-20T11:54:42;40.00;99.90
21481;DHT22;10902;48.158;8.634;2023-08-20T11:57:31;40.70;99.90
21481;DHT22;10902;48.158;8.634;2023-08-20T12:00:27;40.00;99.90
21481;DHT22;10902;48.158;8.634;2023-08-20T12:03:13;39.00;99.90
21481;DHT22;10902;48.158;8.634;2023-08-20T12:05:59;39.80;99.90
21481;DHT22;10902;48.158;8.634;2023-08-20T12:08:44;40.00;99.90
21481;DHT22;10902;48.158;8.634;2023-08-20T12:11:30;40.00;99.90
21481;DHT22;10902;48.158;8.634;2023-08-20T12:14:20;40.00;99.90
21481;DHT22;10902;48.158;8.634;2023-08-20T12:17:05;40.40;99.90
21481;DHT22;10902;48.158;8.634;2023-08-20T12:19:51;39.90;99.90
21481;DHT22;10902;48.158;8.634;2023-08-20T12:22:37;40.50;99.90
21481;DHT22;10902;48.158;8.634;2023-08-20T12:25:22;41.10;99.90
21481;DHT22;10902;48.158;8.634;2023-08-20T12:28:08;41.20;99.90
21481;DHT22;10902;48.158;8.634;2023-08-20T12:30:54;40.80;99.90
21481;DHT22;10902;48.158;8.634;2023-08-20T12:33:40;41.20;99.90
21481;DHT22;10902;48.158;8.634;2023-08-20T12:36:25;41.60;99.90
21481;DHT22;10902;48.158;8.634;2023-08-20T12:39:11;41.20;99.90
21481;DHT22;10902;48.158;8.634;2023-08-20T12:41:57;40.70;99.90
21481;DHT22;10902;48.158;8.634;2023-08-20T12:44:43;41.70;99.90
21481;DHT22;10902;48.158;8.634;2023-08-20T12:47:28;42.70;99.90
21481;DHT22;10902;48.158;8.634;2023-08-20T12:50:15;42.00;99.90
21481;DHT22;10902;48.158;8.634;2023-08-20T12:53:00;41.40;99.90
21481;DHT22;10902;48.158;8.634;2023-08-20T12:55:46;40.80;99.90
21481;DHT22;10902;48.158;8.634;2023-08-20T12:58:32;41.00;99.90
21481;DHT22;10902;48.158;8.634;2023-08-20T13:01:17;41.30;99.90
21481;DHT22;10902;48.158;8.634;2023-08-20T13:04:04;41.90;99.90
21481;DHT22;10902;48.158;8.634;2023-08-20T13:06:50;42.20;99.90
21481;DHT22;10902;48.158;8.634;2023-08-20T13:09:36;42.80;99.90
21481;DHT22;10902;48.158;8.634;2023-08-20T13:12:26;42.80;99.90
21481;DHT22;10902;48.158;8.634;2023-08-20T13:15:12;41.70;99.90
21481;DHT22;10902;48.158;8.634;2023-08-20T13:17:58;41.90;99.90
21481;DHT22;10902;48.158;8.634;2023-08-20T13:20:44;41.20;99.90
21481;DHT22;10902;48.158;8.634;2023-08-20T13:23:30;40.80;99.90
21481;DHT22;10902;48.158;8.634;2023-08-20T13:26:15;40.40;99.90
21481;DHT22;10902;48.158;8.634;2023-08-20T13:29:01;41.00;99.90
21481;DHT22;10902;48.158;8.634;2023-08-20T13:31:46;40.70;99.90
21481;DHT22;10902;48.158;8.634;2023-08-20T13:34:32;41.20;99.90
21481;DHT22;10902;48.158;8.634;2023-08-20T13:37:18;41.30;99.90
21481;DHT22;10902;48.158;8.634;2023-08-20T13:40:04;41.40;99.90
21481;DHT22;10902;48.158;8.634;2023-08-20T13:42:50;41.00;99.90
21481;DHT22;10902;48.158;8.634;2023-08-20T13:45:35;39.40;99.90
21481;DHT22;10902;48.158;8.634;2023-08-20T13:48:21;40.50;99.90
21481;DHT22;10902;48.158;8.634;2023-08-20T13:51:06;40.80;99.90
21481;DHT22;10902;48.158;8.634;2023-08-20T13:53:52;41.10;99.90
21481;DHT22;10902;48.158;8.634;2023-08-20T13:56:38;41.60;99.90
21481;DHT22;10902;48.158;8.634;2023-08-20T13:59:24;40.70;99.90
21481;DHT22;10902;48.158;8.634;2023-08-20T14:02:09;38.50;99.90
21481;DHT22;10902;48.158;8.634;2023-08-20T14:04:55;36.80;99.90
21481;DHT22;10902;48.158;8.634;2023-08-20T14:07:40;35.40;99.90
21481;DHT22;10902;48.158;8.634;2023-08-20T14:10:27;34.80;99.90
21481;DHT22;10902;48.158;8.634;2023-08-20T14:13:12;34.50;99.90
21481;DHT22;10902;48.158;8.634;2023-08-20T14:15:58;34.50;99.90
21481;DHT22;10902;48.158;8.634;2023-08-20T14:18:45;34.30;99.90
21481;DHT22;10902;48.158;8.634;2023-08-20T14:21:31;34.20;99.90
21481;DHT22;10902;48.158;8.634;2023-08-20T14:24:16;34.10;99.90
21481;DHT22;10902;48.158;8.634;2023-08-20T14:27:02;34.00;99.90
21481;DHT22;10902;48.158;8.634;2023-08-20T14:29:48;33.90;99.90
21481;DHT22;10902;48.158;8.634;2023-08-20T14:32:33;33.60;99.90
21481;DHT22;10902;48.158;8.634;2023-08-20T14:35:19;33.30;99.90
21481;DHT22;10902;48.158;8.634;2023-08-20T14:38:05;33.40;99.90
21481;DHT22;10902;48.158;8.634;2023-08-20T14:40:51;33.20;99.90
21481;DHT22;10902;48.158;8.634;2023-08-20T14:43:36;33.00;99.90
21481;DHT22;10902;48.158;8.634;2023-08-20T14:46:22;32.80;99.90
21481;DHT22;10902;48.158;8.634;2023-08-20T14:49:07;32.70;99.90
21481;DHT22;10902;48.158;8.634;2023-08-20T14:51:53;32.60;99.90
21481;DHT22;10902;48.158;8.634;2023-08-20T14:54:38;32.60;99.90
21481;DHT22;10902;48.158;8.634;2023-08-20T14:57:27;32.40;99.90
21481;DHT22;10902;48.158;8.634;2023-08-20T15:00:14;32.40;99.90
21481;DHT22;10902;48.158;8.634;2023-08-20T15:03:00;32.40;99.90
21481;DHT22;10902;48.158;8.634;2023-08-20T15:05:45;32.40;99.90
21481;DHT22;10902;48.158;8.634;2023-08-20T15:08:31;32.30;99.90
21481;DHT22;10902;48.158;8.634;2023-08-20T15:11:17;32.20;99.90
21481;DHT22;10902;48.158;8.634;2023-08-20T15:14:02;32.20;99.90
21481;DHT22;10902;48.158;8.634;2023-08-20T15:16:48;32.30;99.90
21481;DHT22;10902;48.158;8.634;2023-08-20T15:19:34;32.40;99.90
21481;DHT22;10902;48.158;8.634;2023-08-20T15:22:19;32.30;99.90
21481;DHT22;10902;48.158;8.634;2023-08-20T15:25:05;32.40;99.90
21481;DHT22;10902;48.158;8.634;2023-08-20T15:27:55;32.40;99.90
21481;DHT22;10902;48.158;8.634;2023-08-20T15:30:41;32.40;99.90
21481;DHT22;10902;48.158;8.634;2023-08-20T15:33:26;32.40;99.90
21481;DHT22;10902;48.158;8.634;2023-08-20T15:36:12;32.60;99.90
21481;DHT22;10902;48.158;8.634;2023-08-20T15:38:58;32.70;99.90
21481;DHT22;10902;48.158;8.634;2023-08-20T15:41:44;33.30;99.90
21481;DHT22;10902;48.158;8.634;2023-08-20T15:44:32;34.20;99.90
21481;DHT22;10902;48.158;8.634;2023-08-20T15:47:17;34.30;99.90
21481;DHT22;10902;48.158;8.634;2023-08-20T15:50:03;34.00;99.90
21481;DHT22;10902;48.158;8.634;2023-08-20T15:52:49;33.80;99.90
21481;DHT22;10902;48.158;8.634;2023-08-20T15:55:34;33.80;99.90
21481;DHT22;10902;48.158;8.634;2023-08-20T15:58:20;33.70;99.90
21481;DHT22;10902;48.158;8.634;2023-08-20T16:01:05;33.60;99.90
21481;DHT22;10902;48.158;8.634;2023-08-20T16:03:51;33.70;99.90
21481;DHT22;10902;48.158;8.634;2023-08-20T16:06:37;33.60;99.90
21481;DHT22;10902;48.158;8.634;2023-08-20T16:09:22;33.40;99.90
21481;DHT22;10902;48.158;8.634;2023-08-20T16:12:08;33.00;99.90
21481;DHT22;10902;48.158;8.634;2023-08-20T16:14:55;32.80;99.90
21481;DHT22;10902;48.158;8.634;2023-08-20T16:17:40;32.70;99.90
21481;DHT22;10902;48.158;8.634;2023-08-20T16:20:26;32.60;99.90
21481;DHT22;10902;48.158;8.634;2023-08-20T16:23:11;32.60;99.90
21481;DHT22;10902;48.158;8.634;2023-08-20T16:25:57;32.80;99.90
21481;DHT22;10902;48.158;8.634;2023-08-20T16:28:43;33.20;99.90
21481;DHT22;10902;48.158;8.634;2023-08-20T16:31:29;34.20;99.90
21481;DHT22;10902;48.158;8.634;2023-08-20T16:34:14;35.80;99.90
21481;DHT22;10902;48.158;8.634;2023-08-20T16:37:00;36.80;99.90
21481;DHT22;10902;48.158;8.634;2023-08-20T16:39:45;36.60;99.90
21481;DHT22;10902;48.158;8.634;2023-08-20T16:42:31;36.30;99.90
21481;DHT22;10902;48.158;8.634;2023-08-20T16:45:17;36.80;99.90
21481;DHT22;10902;48.158;8.634;2023-08-20T16:48:03;38.30;99.90
21481;DHT22;10902;48.158;8.634;2023-08-20T16:50:49;39.60;99.90
21481;DHT22;10902;48.158;8.634;2023-08-20T16:53:35;39.90;99.90
21481;DHT22;10902;48.158;8.634;2023-08-20T16:56:20;40.20;99.90
21481;DHT22;10902;48.158;8.634;2023-08-20T16:59:06;39.80;99.90
21481;DHT22;10902;48.158;8.634;2023-08-20T17:01:51;39.00;99.90
21481;DHT22;10902;48.158;8.634;2023-08-20T17:04:37;39.50;99.90
21481;DHT22;10902;48.158;8.634;2023-08-20T17:07:23;40.20;99.90
21481;DHT22;10902;48.158;8.634;2023-08-20T17:10:09;39.80;99.90
21481;DHT22;10902;48.158;8.634;2023-08-20T17:12:54;37.20;99.90
21481;DHT22;10902;48.158;8.634;2023-08-20T17:15:40;35.70;99.90
21481;DHT22;10902;48.158;8.634;2023-08-20T17:18:26;35.00;99.90
21481;DHT22;10902;48.158;8.634;2023-08-20T17:21:12;33.80;99.90
21481;DHT22;10902;48.158;8.634;2023-08-20T17:23:57;32.80;99.90
21481;DHT22;10902;48.158;8.634;2023-08-20T17:26:43;33.20;99.90
21481;DHT22;10902;48.158;8.634;2023-08-20T17:29:29;32.80;99.90
21481;DHT22;10902;48.158;8.634;2023-08-20T17:32:15;32.60;99.90
21481;DHT22;10902;48.158;8.634;2023-08-20T17:35:00;32.40;99.90
21481;DHT22;10902;48.158;8.634;2023-08-20T17:37:46;32.20;99.90